createdAt,value
2022-11-10T00:01:20.866Z,15.90
2022-11-10T00:05:22.769Z,16.30
2022-11-10T00:09:24.463Z,16.50
2022-11-10T00:13:29.129Z,16.70
2022-11-10T00:17:30.862Z,16.60
2022-11-10T00:21:38.280Z,16.70
2022-11-10T00:25:40.258Z,16.40
2022-11-10T00:29:42.125Z,16.70
2022-11-10T00:33:44.773Z,17.00
2022-11-10T00:37:49.290Z,16.70
2022-11-10T00:46:07.047Z,16.50
2022-11-10T00:50:09.974Z,16.60
2022-11-10T00:54:12.587Z,16.60
2022-11-10T00:58:14.634Z,16.50
2022-11-10T01:02:16.450Z,16.60
2022-11-10T01:06:19.806Z,16.50
2022-11-10T01:10:22.145Z,16.60
2022-11-10T01:14:30.746Z,16.50
2022-11-10T01:18:32.854Z,16.90
2022-11-10T01:22:35.427Z,16.50
2022-11-10T01:26:37.254Z,16.50
2022-11-10T01:30:39.081Z,16.50
2022-11-10T01:34:41.629Z,16.50
2022-11-10T01:38:43.844Z,16.60
2022-11-10T01:42:53.830Z,16.60
2022-11-10T01:46:56.930Z,16.70
2022-11-10T01:51:05.257Z,16.80
2022-11-10T01:55:07.453Z,16.50
2022-11-10T01:59:14.176Z,16.40
2022-11-10T02:03:27.725Z,16.50
2022-11-10T02:07:31.343Z,16.50
2022-11-10T02:11:34.256Z,16.60
2022-11-10T02:15:36.075Z,16.50
2022-11-10T02:19:43.757Z,16.80
2022-11-10T02:23:53.935Z,16.50
2022-11-10T02:27:55.791Z,16.40
2022-11-10T02:31:59.116Z,16.70
2022-11-10T02:36:00.945Z,16.40
2022-11-10T02:40:08.137Z,16.10
2022-11-10T02:44:10.163Z,15.80
2022-11-10T02:48:14.616Z,16.00
2022-11-10T02:56:34.695Z,15.90
2022-11-10T03:00:40.634Z,15.70
2022-11-10T03:04:42.672Z,15.80
2022-11-10T03:08:45.630Z,15.80
2022-11-10T03:12:48.225Z,15.70
2022-11-10T03:16:49.966Z,15.60
2022-11-10T03:20:51.881Z,15.80
2022-11-10T03:24:53.674Z,15.40
2022-11-10T03:28:55.488Z,15.50
2022-11-10T03:33:00.590Z,15.20
2022-11-10T03:37:02.354Z,15.00
2022-11-10T03:41:19.237Z,15.10
2022-11-10T03:45:21.406Z,15.00
2022-11-10T03:49:31.296Z,15.10
2022-11-10T03:53:33.215Z,15.20
2022-11-10T03:57:35.473Z,15.50
2022-11-10T04:01:39.294Z,15.10
2022-11-10T04:05:59.640Z,15.10
2022-11-10T04:10:01.471Z,15.30
2022-11-10T04:14:21.748Z,15.00
2022-11-10T04:18:26.893Z,14.90
2022-11-10T04:22:47.435Z,15.20
2022-11-10T04:26:49.813Z,14.90
2022-11-10T04:30:51.546Z,14.80
2022-11-10T04:39:10.772Z,14.60
2022-11-10T04:43:15.038Z,14.30
2022-11-10T04:47:16.998Z,14.40
2022-11-10T04:51:20.534Z,14.20
2022-11-10T04:55:22.481Z,14.40
2022-11-10T04:59:24.207Z,14.30
2022-11-10T05:03:28.055Z,14.30
2022-11-10T05:07:36.443Z,14.00
2022-11-10T05:11:38.267Z,14.00
2022-11-10T05:15:42.186Z,13.80
2022-11-10T05:19:43.944Z,14.00
2022-11-10T05:23:50.900Z,13.60
2022-11-10T05:27:52.904Z,13.50
2022-11-10T05:31:54.782Z,13.30
2022-11-10T05:35:56.669Z,13.40
2022-11-10T05:39:59.007Z,13.50
2022-11-10T05:44:01.115Z,13.50
2022-11-10T05:48:03.009Z,13.40
2022-11-10T05:52:04.798Z,13.10
2022-11-10T05:56:07.346Z,13.20
2022-11-10T06:00:09.789Z,12.60
2022-11-10T06:04:11.500Z,12.70
2022-11-10T06:08:13.241Z,12.80
2022-11-10T06:12:15.695Z,13.00
2022-11-10T06:16:17.792Z,12.40
2022-11-10T06:20:19.792Z,12.80
2022-11-10T06:24:21.586Z,12.50
2022-11-10T06:28:23.432Z,12.60
2022-11-10T06:32:25.155Z,12.60
2022-11-10T06:36:26.925Z,12.60
2022-11-10T06:40:30.325Z,12.50
2022-11-10T06:44:32.051Z,12.60
2022-11-10T06:48:41.431Z,12.60
2022-11-10T06:52:43.153Z,12.70
2022-11-10T06:56:44.815Z,12.70
2022-11-10T07:00:46.805Z,12.60
2022-11-10T07:04:50.666Z,12.40
2022-11-10T07:09:00.509Z,12.30
2022-11-10T07:13:04.078Z,11.60
2022-11-10T07:17:05.875Z,11.50
2022-11-10T07:21:07.745Z,12.10
2022-11-10T07:25:09.685Z,12.30
2022-11-10T07:29:12.633Z,12.20
2022-11-10T07:33:15.613Z,12.30
2022-11-10T07:37:17.289Z,12.20
2022-11-10T07:41:19.029Z,12.40
2022-11-10T07:45:21.092Z,12.50
2022-11-10T07:49:30.524Z,12.90
2022-11-10T07:53:32.390Z,12.70
2022-11-10T07:57:34.571Z,12.70
2022-11-10T08:01:36.313Z,13.10
2022-11-10T08:05:38.932Z,13.30
2022-11-10T08:09:40.655Z,13.10
2022-11-10T08:13:42.529Z,13.50
2022-11-10T08:17:44.417Z,13.70
2022-11-10T08:21:46.205Z,13.80
2022-11-10T08:25:48.071Z,14.10
2022-11-10T08:29:49.832Z,14.50
2022-11-10T08:33:51.881Z,14.40
2022-11-10T08:37:53.910Z,14.70
2022-11-10T08:41:55.761Z,15.20
2022-11-10T08:45:57.861Z,15.00
2022-11-10T08:49:59.549Z,15.10
2022-11-10T08:54:06.864Z,15.00
2022-11-10T08:58:11.560Z,15.10
2022-11-10T09:02:13.328Z,15.30
2022-11-10T09:06:15.090Z,15.00
2022-11-10T09:10:16.948Z,15.00
2022-11-10T09:14:28.921Z,15.10
2022-11-10T09:18:31.429Z,15.30
2022-11-10T09:23:10.829Z,15.60
2022-11-10T09:27:12.779Z,15.40
2022-11-10T09:31:18.339Z,14.90
2022-11-10T09:35:20.066Z,15.50
2022-11-10T09:39:21.810Z,15.50
2022-11-10T09:43:59.071Z,15.40
2022-11-10T09:48:10.736Z,15.40
2022-11-10T09:52:13.735Z,15.50
2022-11-10T09:56:22.745Z,15.70
2022-11-10T10:00:24.510Z,15.70
2022-11-10T10:04:52.101Z,15.90
2022-11-10T10:09:21.712Z,15.80
2022-11-10T10:13:57.452Z,16.10
2022-11-10T10:18:14.105Z,16.10
2022-11-10T10:22:27.977Z,15.50
2022-11-10T10:26:33.593Z,15.30
2022-11-10T10:30:35.342Z,15.50
2022-11-10T10:34:37.125Z,15.50
2022-11-10T10:38:40.271Z,15.80
2022-11-10T10:42:42.547Z,16.10
2022-11-10T10:47:01.222Z,15.70
2022-11-10T10:51:03.126Z,16.40
2022-11-10T10:55:08.231Z,16.40
2022-11-10T10:59:20.982Z,16.40
2022-11-10T11:03:34.875Z,16.60
2022-11-10T11:07:36.771Z,16.70
2022-11-10T11:11:40.506Z,16.90
2022-11-10T11:15:42.208Z,16.90
2022-11-10T11:19:44.382Z,16.60
2022-11-10T11:23:55.059Z,16.30
2022-11-10T11:27:59.575Z,16.20
2022-11-10T11:32:10.507Z,16.20
2022-11-10T11:36:44.506Z,16.20
2022-11-10T11:41:04.313Z,16.20
2022-11-10T11:45:32.382Z,16.00
2022-11-10T11:49:52.979Z,16.20
2022-11-10T11:54:30.451Z,16.30
2022-11-10T11:58:35.134Z,16.10
2022-11-10T12:02:53.523Z,16.10
2022-11-10T12:07:07.308Z,16.30
2022-11-10T12:11:29.809Z,16.10
2022-11-10T12:15:50.077Z,16.50
2022-11-10T12:20:26.880Z,16.60
2022-11-10T12:24:40.887Z,16.60
2022-11-10T12:29:14.980Z,16.80
2022-11-10T12:33:22.645Z,17.10
2022-11-10T12:37:35.831Z,17.00
2022-11-10T12:41:47.330Z,16.70
2022-11-10T12:46:24.913Z,16.90
2022-11-10T12:50:35.295Z,16.90
2022-11-10T12:54:45.501Z,16.90
2022-11-10T12:58:47.193Z,16.70
2022-11-10T13:02:50.736Z,17.00
2022-11-10T13:07:08.807Z,17.20
2022-11-10T13:11:12.069Z,17.30
2022-11-10T13:15:35.172Z,17.30
2022-11-10T13:19:39.029Z,17.20
2022-11-10T13:23:43.891Z,16.50
2022-11-10T13:27:45.542Z,16.90
2022-11-10T13:31:53.247Z,16.90
2022-11-10T13:35:58.699Z,16.40
2022-11-10T13:40:24.891Z,16.80
2022-11-10T13:44:38.367Z,17.00
2022-11-10T13:48:50.014Z,16.90
2022-11-10T13:53:26.393Z,17.00
2022-11-10T13:57:37.469Z,17.10
2022-11-10T14:01:39.208Z,17.30
2022-11-10T14:05:42.211Z,17.20
2022-11-10T14:10:03.646Z,17.30
2022-11-10T14:14:14.654Z,17.20
2022-11-10T14:18:30.445Z,17.10
2022-11-10T14:22:43.194Z,17.40
2022-11-10T14:26:51.923Z,17.30
2022-11-10T14:30:55.786Z,17.60
2022-11-10T14:35:02.622Z,17.50
2022-11-10T14:39:06.749Z,17.10
2022-11-10T14:43:24.738Z,17.20
2022-11-10T14:47:31.015Z,17.50
2022-11-10T14:51:34.501Z,17.20
2022-11-10T14:55:36.700Z,17.20
2022-11-10T14:59:39.218Z,17.30
2022-11-10T15:03:42.728Z,17.50
2022-11-10T15:07:45.802Z,17.60
2022-11-10T15:11:51.244Z,17.30
2022-11-10T15:16:14.003Z,17.30
2022-11-10T15:20:34.129Z,17.20
2022-11-10T15:24:35.897Z,17.20
2022-11-10T15:28:37.689Z,17.10
2022-11-10T15:32:43.742Z,17.10
2022-11-10T15:36:45.548Z,17.00
2022-11-10T15:40:49.625Z,16.90
2022-11-10T15:44:51.319Z,16.90
2022-11-10T15:48:53.378Z,16.60
2022-11-10T15:52:55.089Z,16.70
2022-11-10T15:56:57.701Z,16.40
2022-11-10T16:01:01.114Z,16.40
2022-11-10T16:05:11.666Z,16.20
2022-11-10T16:09:14.653Z,16.10
2022-11-10T16:13:23.817Z,16.00
2022-11-10T16:17:25.820Z,15.80
2022-11-10T16:21:27.933Z,15.80
2022-11-10T16:25:29.893Z,15.70
2022-11-10T16:29:32.621Z,15.50
2022-11-10T16:33:34.326Z,15.40
2022-11-10T16:37:36.015Z,15.30
2022-11-10T16:41:37.743Z,15.30
2022-11-10T16:45:42.912Z,15.60
2022-11-10T16:49:45.659Z,15.40
2022-11-10T16:53:47.926Z,15.10
2022-11-10T16:57:49.637Z,14.80
2022-11-10T17:01:53.707Z,14.80
2022-11-10T17:05:55.418Z,14.80
2022-11-10T17:09:59.071Z,14.60
2022-11-10T17:14:00.834Z,14.90
2022-11-10T17:18:04.797Z,14.20
2022-11-10T17:22:08.936Z,14.00
2022-11-10T17:26:15.445Z,14.20
2022-11-10T17:30:17.396Z,14.10
2022-11-10T17:34:19.326Z,14.10
2022-11-10T17:38:24.245Z,14.10
2022-11-10T17:42:26.096Z,13.80
2022-11-10T17:46:29.183Z,14.00
2022-11-10T17:50:31.870Z,13.80
2022-11-10T17:54:33.563Z,13.90
2022-11-10T17:58:35.259Z,13.80
2022-11-10T18:02:37.016Z,13.80
2022-11-10T18:06:38.885Z,13.70
2022-11-10T18:10:55.797Z,13.60
2022-11-10T18:14:57.511Z,13.60
2022-11-10T18:18:59.436Z,13.30
2022-11-10T18:23:01.109Z,13.70
2022-11-10T18:27:02.864Z,13.40
2022-11-10T18:31:09.888Z,13.30
2022-11-10T18:35:11.740Z,13.30
2022-11-10T18:39:13.648Z,13.20
2022-11-10T18:43:15.378Z,13.00
2022-11-10T18:47:17.893Z,13.30
2022-11-10T18:51:19.572Z,12.70
2022-11-10T18:55:21.594Z,13.20
2022-11-10T18:59:23.351Z,12.80
2022-11-10T19:03:25.269Z,12.70
2022-11-10T19:07:27.278Z,12.60
2022-11-10T19:11:28.989Z,12.90
2022-11-10T19:15:30.758Z,12.70
2022-11-10T19:19:32.422Z,12.50
2022-11-10T19:23:34.125Z,12.40
2022-11-10T19:27:35.930Z,12.30
2022-11-10T19:31:37.799Z,12.70
2022-11-10T19:35:42.861Z,12.10
2022-11-10T19:39:44.582Z,12.30
2022-11-10T19:43:47.762Z,12.40
2022-11-10T19:47:49.613Z,12.10
2022-11-10T19:51:51.395Z,12.40
2022-11-10T19:55:53.584Z,12.20
2022-11-10T19:59:55.503Z,12.20
2022-11-10T20:03:58.827Z,12.00
2022-11-10T20:08:12.521Z,12.20
2022-11-10T20:12:14.216Z,12.10
2022-11-10T20:16:16.213Z,12.10
2022-11-10T20:20:19.283Z,11.80
2022-11-10T20:24:21.035Z,11.80
2022-11-10T20:28:22.726Z,11.80
2022-11-10T20:32:25.704Z,11.70
2022-11-10T20:36:30.125Z,11.80
2022-11-10T20:40:44.131Z,12.10
2022-11-10T20:44:46.479Z,12.00
2022-11-10T20:48:48.721Z,12.00
2022-11-10T20:52:50.470Z,11.90
2022-11-10T20:56:52.310Z,11.70
2022-11-10T21:00:55.220Z,11.80
2022-11-10T21:04:56.927Z,11.50
2022-11-10T21:09:00.713Z,11.80
2022-11-10T21:13:02.504Z,11.50
2022-11-10T21:17:04.942Z,11.70
2022-11-10T21:21:20.165Z,11.50
2022-11-10T21:25:21.877Z,11.80
2022-11-10T21:29:23.560Z,11.50
2022-11-10T21:33:25.660Z,11.90
2022-11-10T21:37:27.647Z,11.50
2022-11-10T21:41:29.337Z,11.40
2022-11-10T21:45:31.001Z,11.30
2022-11-10T21:49:33.030Z,11.10
2022-11-10T21:53:35.952Z,11.30
2022-11-10T21:57:38.397Z,11.70
2022-11-10T22:01:40.208Z,11.30
2022-11-10T22:05:41.897Z,11.10
2022-11-10T22:10:02.088Z,11.30
2022-11-10T22:14:29.959Z,11.40
2022-11-10T22:18:37.434Z,11.10
2022-11-10T22:22:39.129Z,11.10
2022-11-10T22:26:40.883Z,10.90
2022-11-10T22:30:42.553Z,10.80
2022-11-10T22:34:44.231Z,11.00
2022-11-10T22:38:46.500Z,11.20
2022-11-10T22:43:06.670Z,10.60
2022-11-10T22:47:08.427Z,10.80
2022-11-10T22:51:10.120Z,10.80
2022-11-10T22:55:11.848Z,10.70
2022-11-10T22:59:14.464Z,10.70
2022-11-10T23:03:17.082Z,11.10
2022-11-10T23:07:19.298Z,10.70
2022-11-10T23:11:24.189Z,10.60
2022-11-10T23:15:26.113Z,10.70
2022-11-10T23:19:27.805Z,10.90
2022-11-10T23:23:32.966Z,10.40
2022-11-10T23:27:35.337Z,10.20
2022-11-10T23:31:37.015Z,10.00
2022-11-10T23:35:39.621Z,10.40
2022-11-10T23:39:41.314Z,10.00
2022-11-10T23:43:43.585Z,10.00
2022-11-10T23:47:45.222Z,10.20
2022-11-10T23:51:46.861Z,10.70
2022-11-10T23:56:03.139Z,10.80
